Paonia, Colorado
Current Conditions -  °F | °C
As of 11:35 AM on Thursday 23 Oct 2014 (Local Time) from KAJZ Reporting Station
Clear Clear  
Wind Chill: 61°   Ceiling: Unl
Heat Index: 61°   Visibility: 10mi
Dew Point: 36°   Wind: 0mph
Humidity: 39%   Direction: NA
Pressure: 30.3"   Gusts: NA
Location:  38.87°N, 107.59°W
Report Text: KAJZ 231735Z AUTO 00000KT 10SM CLR 16/02 A3030 RMK AO2 T01600020
Loading
Personal Weather Stations






























Interactive Weather Map
Tropical Storm Tracking
New forecast layout! Learn more

10-Day Weather Forecast

Advertisements
Track Severe Weather on mobile